createdAt,value
2023-02-24T00:01:51.488Z,100901.13
2023-02-24T00:04:21.533Z,100893.78
2023-02-24T00:06:50.204Z,100887.69
2023-02-24T00:09:20.087Z,100892.72
2023-02-24T00:11:49.766Z,100886.44
2023-02-24T00:14:18.887Z,100873.50
2023-02-24T00:16:48.899Z,100883.75
2023-02-24T00:19:19.147Z,100887.50
2023-02-24T00:21:47.191Z,100885.28
2023-02-24T00:24:15.433Z,100889.34
2023-02-24T00:26:43.429Z,100877.59
2023-02-24T00:29:13.466Z,100869.75
2023-02-24T00:31:43.219Z,100872.78
2023-02-24T00:34:15.056Z,100864.56
2023-02-24T00:36:43.085Z,100856.47
2023-02-24T00:39:11.021Z,100858.75
2023-02-24T00:41:40.941Z,100851.47
2023-02-24T00:44:13.362Z,100849.16
2023-02-24T00:46:44.654Z,100841.16
2023-02-24T00:49:17.184Z,100842.31
2023-02-24T00:51:48.649Z,100846.13
2023-02-24T00:54:17.353Z,100833.91
2023-02-24T00:56:46.797Z,100829.13
2023-02-24T00:59:16.188Z,100836.59
2023-02-24T01:01:45.201Z,100838.41
2023-02-24T01:04:15.741Z,100837.53
2023-02-24T01:06:45.954Z,100843.22
2023-02-24T01:09:15.928Z,100841.59
2023-02-24T01:12:17.349Z,100827.34
2023-02-24T01:14:47.703Z,100829.94
2023-02-24T01:17:18.225Z,100821.28
2023-02-24T01:19:49.416Z,100821.81
2023-02-24T01:22:19.839Z,100819.38
2023-02-24T01:24:48.676Z,100808.63
2023-02-24T01:27:18.594Z,100812.94
2023-02-24T01:29:46.803Z,100799.44
2023-02-24T01:32:18.634Z,100800.25
2023-02-24T01:34:52.130Z,100791.91
2023-02-24T01:37:20.493Z,100795.25
2023-02-24T01:39:49.256Z,100774.19
2023-02-24T01:42:19.977Z,100772.53
2023-02-24T01:45:13.010Z,100767.00
2023-02-24T01:47:42.132Z,100775.63
2023-02-24T01:50:15.177Z,100762.72
2023-02-24T01:52:46.212Z,100756.34
2023-02-24T01:55:20.141Z,100751.97
2023-02-24T01:57:50.110Z,100765.56
2023-02-24T02:00:37.051Z,100746.44
2023-02-24T02:03:13.891Z,100740.31
2023-02-24T02:05:45.247Z,100729.19
2023-02-24T02:08:14.576Z,100730.59
2023-02-24T02:10:44.317Z,100721.06
2023-02-24T02:13:14.233Z,100728.97
2023-02-24T02:15:57.762Z,100715.31
2023-02-24T02:18:34.473Z,100725.47
2023-02-24T02:21:33.131Z,100718.41
2023-02-24T02:24:25.934Z,100711.59
2023-02-24T02:27:19.879Z,100709.97
2023-02-24T02:30:24.763Z,100708.75
2023-02-24T02:33:21.531Z,100704.53
2023-02-24T02:36:00.627Z,100697.72
2023-02-24T02:38:35.456Z,100698.09
2023-02-24T02:41:13.465Z,100701.94
2023-02-24T02:43:48.970Z,100693.31
2023-02-24T02:46:34.620Z,100686.88
2023-02-24T02:49:12.264Z,100690.69
2023-02-24T02:51:45.931Z,100677.41
2023-02-24T02:54:18.776Z,100691.53
2023-02-24T02:56:52.818Z,100668.22
2023-02-24T02:59:25.113Z,100673.72
2023-02-24T03:02:01.197Z,100660.88
2023-02-24T03:04:30.892Z,100666.19
2023-02-24T03:07:03.771Z,100659.59
2023-02-24T03:09:36.127Z,100656.84
2023-02-24T03:12:08.317Z,100642.84
2023-02-24T03:14:40.899Z,100644.19
2023-02-24T03:17:14.903Z,100637.38
2023-02-24T03:19:43.819Z,100625.84
2023-02-24T03:22:17.687Z,100624.78
2023-02-24T03:24:46.537Z,100613.31
2023-02-24T03:27:21.076Z,100606.16
2023-02-24T03:29:53.704Z,100595.50
2023-02-24T03:32:26.824Z,100598.97
2023-02-24T03:34:59.603Z,100590.50
2023-02-24T03:37:30.390Z,100587.66
2023-02-24T03:39:59.861Z,100583.66
2023-02-24T03:42:31.753Z,100576.03
2023-02-24T03:44:59.451Z,100572.75
2023-02-24T03:47:27.779Z,100564.84
2023-02-24T03:49:55.479Z,100565.63
2023-02-24T03:52:35.697Z,100553.63
2023-02-24T03:55:21.300Z,100543.59
2023-02-24T03:58:04.367Z,100536.41
2023-02-24T04:00:39.631Z,100527.38
2023-02-24T04:03:19.661Z,100524.81
2023-02-24T04:05:57.013Z,100531.41
2023-02-24T04:08:31.008Z,100530.19
2023-02-24T04:11:05.302Z,100523.09
2023-02-24T04:13:37.209Z,100517.97
2023-02-24T04:16:16.964Z,100509.00
2023-02-24T04:18:49.436Z,100498.78
2023-02-24T04:21:20.255Z,100501.94
2023-02-24T04:23:50.702Z,100485.81
2023-02-24T04:26:20.742Z,100482.84
2023-02-24T04:28:49.574Z,100468.47
2023-02-24T04:31:18.880Z,100466.88
2023-02-24T04:33:50.239Z,100469.72
2023-02-24T04:36:18.634Z,100455.56
2023-02-24T04:38:47.177Z,100454.88
2023-02-24T04:41:21.491Z,100449.16
2023-02-24T04:43:50.859Z,100438.31
2023-02-24T04:46:18.932Z,100433.97
2023-02-24T04:48:47.096Z,100431.25
2023-02-24T04:51:14.819Z,100424.88
2023-02-24T04:53:42.563Z,100409.91
2023-02-24T04:56:10.254Z,100408.47
2023-02-24T04:58:41.583Z,100399.69
2023-02-24T05:01:11.455Z,100398.91
2023-02-24T05:03:42.412Z,100374.72
2023-02-24T05:06:16.039Z,100375.13
2023-02-24T05:08:44.060Z,100370.84
2023-02-24T05:11:15.919Z,100372.16
2023-02-24T05:13:47.129Z,100363.53
2023-02-24T05:16:17.629Z,100349.66
2023-02-24T05:18:45.658Z,100350.34
2023-02-24T05:21:32.569Z,100348.25
2023-02-24T05:24:06.446Z,100322.03
2023-02-24T05:26:35.880Z,100317.97
2023-02-24T05:29:06.803Z,100304.31
2023-02-24T05:31:34.974Z,100299.50
2023-02-24T05:34:05.195Z,100305.41
2023-02-24T05:36:36.260Z,100298.06
2023-02-24T05:39:07.720Z,100297.22
2023-02-24T05:41:38.801Z,100285.53
2023-02-24T05:44:09.669Z,100283.72
2023-02-24T05:46:39.116Z,100278.59
2023-02-24T05:49:09.846Z,100288.50
2023-02-24T05:51:43.218Z,100263.25
2023-02-24T05:54:14.455Z,100261.28
2023-02-24T05:56:43.811Z,100253.53
2023-02-24T05:59:18.248Z,100227.72
2023-02-24T06:01:46.642Z,100228.94
2023-02-24T06:04:21.092Z,100248.16
2023-02-24T06:06:52.482Z,100209.28
2023-02-24T06:09:23.354Z,100229.22
2023-02-24T06:11:51.546Z,100202.25
2023-02-24T06:14:22.292Z,100204.88
2023-02-24T06:16:51.009Z,100194.31
2023-02-24T06:19:18.774Z,100207.38
2023-02-24T06:21:46.548Z,100194.94
2023-02-24T06:24:18.013Z,100193.84
2023-02-24T06:26:46.618Z,100181.72
2023-02-24T06:29:15.658Z,100168.75
2023-02-24T06:31:45.715Z,100155.50
2023-02-24T06:34:14.892Z,100166.47
2023-02-24T06:36:43.174Z,100141.94
2023-02-24T06:39:14.482Z,100154.75
2023-02-24T06:41:42.811Z,100150.22
2023-02-24T06:44:10.551Z,100150.78
2023-02-24T06:46:39.759Z,100131.63
2023-02-24T06:49:09.926Z,100127.38
2023-02-24T06:51:37.649Z,100120.28
2023-02-24T06:54:06.170Z,100116.34
2023-02-24T06:56:38.427Z,100097.56
2023-02-24T06:59:11.957Z,100086.38
2023-02-24T07:01:45.265Z,100088.66
2023-02-24T07:04:26.398Z,100081.31
2023-02-24T07:06:58.359Z,100083.06
2023-02-24T07:09:27.457Z,100096.63
2023-02-24T07:11:56.762Z,100039.91
2023-02-24T07:14:26.942Z,100031.72
2023-02-24T07:16:55.420Z,100011.13
2023-02-24T07:19:26.509Z,99971.72
2023-02-24T07:22:00.056Z,99967.91
2023-02-24T07:24:33.174Z,99951.84
2023-02-24T07:27:03.991Z,99941.00
2023-02-24T07:29:33.355Z,99937.75
2023-02-24T07:32:03.533Z,99868.38
2023-02-24T07:34:33.787Z,99861.81
2023-02-24T07:37:07.819Z,99811.94
2023-02-24T07:39:36.778Z,99789.50
2023-02-24T07:42:05.250Z,99741.44
2023-02-24T07:44:33.207Z,99746.91
2023-02-24T07:47:07.562Z,99716.81
2023-02-24T07:49:37.279Z,99730.97
2023-02-24T07:52:08.148Z,99675.56
2023-02-24T07:54:36.497Z,99679.00
2023-02-24T07:57:04.291Z,99670.69
2023-02-24T07:59:33.829Z,99653.13
2023-02-24T08:02:04.928Z,99640.72
2023-02-24T08:04:33.935Z,99616.81
2023-02-24T08:07:04.188Z,99622.50
2023-02-24T08:10:08.817Z,99618.88
2023-02-24T08:12:42.586Z,99589.25
2023-02-24T08:15:18.027Z,99593.25
2023-02-24T08:17:47.421Z,99578.81
2023-02-24T08:20:25.929Z,99590.41
2023-02-24T08:22:55.763Z,99584.31
2023-02-24T08:25:35.284Z,99569.78
2023-02-24T08:28:08.390Z,99569.88
2023-02-24T08:30:45.310Z,99641.88
2023-02-24T08:33:17.492Z,99817.31
2023-02-24T08:35:45.700Z,99775.34
2023-02-24T08:38:18.603Z,99732.16
2023-02-24T08:40:55.115Z,99697.44
2023-02-24T08:43:33.028Z,99676.66
2023-02-24T08:46:04.600Z,99633.63
2023-02-24T08:48:37.995Z,99599.00
2023-02-24T08:51:10.808Z,99606.34
2023-02-24T08:53:41.439Z,99594.72
2023-02-24T08:56:11.810Z,99605.25
2023-02-24T08:58:47.063Z,99582.06
2023-02-24T09:01:24.227Z,99573.06
2023-02-24T09:03:55.177Z,99577.97
2023-02-24T09:06:26.550Z,99570.09
2023-02-24T09:09:11.862Z,99548.47
2023-02-24T09:11:44.250Z,99548.97
2023-02-24T09:14:26.181Z,99549.72
2023-02-24T09:17:05.360Z,99536.91
2023-02-24T09:19:55.157Z,99514.78
2023-02-24T09:22:32.449Z,99534.84
2023-02-24T09:25:18.846Z,99526.75
2023-02-24T09:27:52.179Z,99525.09
2023-02-24T09:30:37.145Z,99543.81
2023-02-24T09:33:17.701Z,99498.47
2023-02-24T09:35:51.419Z,99531.97
2023-02-24T09:38:21.088Z,99502.63
2023-02-24T09:40:50.533Z,99512.97
2023-02-24T09:43:21.718Z,99503.28
2023-02-24T09:45:58.339Z,99490.25
2023-02-24T09:48:44.538Z,99503.63
2023-02-24T09:51:21.787Z,99483.72
2023-02-24T09:53:53.590Z,99462.69
2023-02-24T09:56:30.050Z,99460.34
2023-02-24T09:59:10.331Z,99466.63
2023-02-24T10:01:45.099Z,99488.25
2023-02-24T10:04:34.548Z,99469.75
2023-02-24T10:07:06.294Z,99463.09
2023-02-24T10:09:38.668Z,99467.53
2023-02-24T10:12:18.090Z,99453.88
2023-02-24T10:14:53.013Z,99469.94
2023-02-24T10:17:30.587Z,99455.06
2023-02-24T10:20:02.466Z,99462.16
2023-02-24T10:22:50.416Z,99491.91
2023-02-24T10:25:36.712Z,99448.13
2023-02-24T10:28:20.071Z,99423.72
2023-02-24T10:31:04.057Z,99423.41
2023-02-24T10:33:38.934Z,99436.00
2023-02-24T10:36:12.531Z,99425.81
2023-02-24T10:38:45.331Z,99449.50
2023-02-24T10:41:14.099Z,99409.00
2023-02-24T10:43:56.045Z,99395.53
2023-02-24T10:46:40.001Z,99393.03
2023-02-24T10:49:16.618Z,99354.84
2023-02-24T10:51:52.252Z,99339.50
2023-02-24T10:54:44.892Z,99327.81
2023-02-24T10:57:18.745Z,99323.78
2023-02-24T11:00:10.653Z,99311.91
2023-02-24T11:02:56.690Z,99325.38
2023-02-24T11:05:38.519Z,99266.44
2023-02-24T11:08:09.586Z,99257.41
2023-02-24T11:10:53.261Z,99234.72
2023-02-24T11:13:39.540Z,99282.72
2023-02-24T11:16:28.698Z,99228.56
2023-02-24T11:18:57.988Z,99221.66
2023-02-24T11:21:27.887Z,99202.28
2023-02-24T11:23:59.527Z,99196.03
2023-02-24T11:26:35.321Z,99184.75
2023-02-24T11:29:30.833Z,99182.06
2023-02-24T11:32:16.954Z,99163.03
2023-02-24T11:34:52.135Z,99162.84
2023-02-24T11:37:34.654Z,99159.28
2023-02-24T11:40:08.548Z,99161.47
2023-02-24T11:42:40.347Z,99153.56
2023-02-24T11:45:19.088Z,99137.31
2023-02-24T11:47:53.408Z,99147.94
2023-02-24T11:50:33.062Z,99129.22
2023-02-24T11:53:06.913Z,99159.91
2023-02-24T11:55:42.408Z,99159.78
2023-02-24T11:58:18.249Z,99141.88
2023-02-24T12:00:54.917Z,99160.97
2023-02-24T12:03:31.739Z,99151.91
2023-02-24T12:06:18.015Z,99128.53
2023-02-24T12:08:49.361Z,99128.72
2023-02-24T12:11:21.963Z,99111.75
2023-02-24T12:13:53.189Z,99125.31
2023-02-24T12:16:26.704Z,99169.00
2023-02-24T12:19:01.762Z,99214.72
2023-02-24T12:21:35.613Z,99214.94
2023-02-24T12:24:08.290Z,99198.78
2023-02-24T12:26:42.823Z,99173.94
2023-02-24T12:29:24.214Z,99190.84
2023-02-24T12:31:57.362Z,99166.59
2023-02-24T12:34:40.301Z,99135.28
2023-02-24T12:37:34.787Z,99155.28
2023-02-24T12:40:16.307Z,99157.13
2023-02-24T12:42:53.177Z,99132.13
2023-02-24T12:45:27.776Z,99134.56
2023-02-24T12:48:08.578Z,99133.09
2023-02-24T12:50:50.315Z,99104.34
2023-02-24T12:53:23.731Z,99095.75
2023-02-24T12:56:06.384Z,99116.22
2023-02-24T12:58:37.283Z,99075.25
2023-02-24T13:01:16.062Z,99092.22
2023-02-24T13:04:07.677Z,99086.56
2023-02-24T13:06:59.137Z,99092.19
2023-02-24T13:09:36.082Z,99069.94
2023-02-24T13:12:12.741Z,99081.84
2023-02-24T13:14:41.929Z,99086.59
2023-02-24T13:17:22.285Z,99068.16
2023-02-24T13:19:52.168Z,99073.72
2023-02-24T13:22:31.170Z,99072.50
2023-02-24T13:25:18.235Z,99069.00
2023-02-24T13:27:57.174Z,99065.59
2023-02-24T13:30:29.494Z,99052.59
2023-02-24T13:33:02.977Z,99016.69
2023-02-24T13:35:34.381Z,99001.72
2023-02-24T13:38:23.046Z,98998.81
2023-02-24T13:40:53.738Z,98996.56
2023-02-24T13:43:27.793Z,98987.81
2023-02-24T13:45:59.435Z,98982.13
2023-02-24T13:48:56.285Z,98979.91
2023-02-24T13:51:42.663Z,98977.75
2023-02-24T13:54:26.526Z,98968.13
2023-02-24T13:56:57.562Z,98948.91
2023-02-24T13:59:43.653Z,98952.84
2023-02-24T14:02:17.372Z,98957.63
2023-02-24T14:04:51.302Z,98971.59
2023-02-24T14:07:24.903Z,98962.22
2023-02-24T14:09:58.804Z,98946.78
2023-02-24T14:12:29.659Z,98960.25
2023-02-24T14:14:58.022Z,98967.66
2023-02-24T14:17:29.499Z,98946.25
2023-02-24T14:20:09.690Z,98960.09
2023-02-24T14:22:44.435Z,98945.28
2023-02-24T14:25:15.678Z,98958.13
2023-02-24T14:27:44.642Z,98968.81
2023-02-24T14:30:25.076Z,98950.88
2023-02-24T14:32:53.123Z,98950.88
2023-02-24T14:35:24.757Z,98946.59
2023-02-24T14:37:52.513Z,98951.69
2023-02-24T14:40:25.397Z,98942.47
2023-02-24T14:42:55.510Z,98936.41
2023-02-24T14:45:26.174Z,98917.97
2023-02-24T14:47:54.216Z,98958.22
2023-02-24T14:50:31.480Z,98950.13
2023-02-24T14:53:03.754Z,98972.69
2023-02-24T14:55:37.338Z,98944.13
2023-02-24T14:58:10.515Z,98906.94
2023-02-24T15:00:42.613Z,98909.91
2023-02-24T15:03:15.614Z,98893.50
2023-02-24T15:05:46.451Z,98886.09
2023-02-24T15:08:27.897Z,98885.25
2023-02-24T15:10:57.240Z,98881.97
2023-02-24T15:13:35.167Z,98883.63
2023-02-24T15:16:12.514Z,98877.38
2023-02-24T15:18:41.443Z,98859.75
2023-02-24T15:21:20.676Z,98846.16
2023-02-24T15:23:48.624Z,98847.47
2023-02-24T15:26:31.614Z,98861.44
2023-02-24T15:29:01.685Z,98845.00
2023-02-24T15:31:30.452Z,98852.22
2023-02-24T15:34:01.005Z,98838.25
2023-02-24T15:36:32.762Z,98833.63
2023-02-24T15:39:04.086Z,98837.09
2023-02-24T15:41:41.879Z,98823.06
2023-02-24T15:44:26.348Z,98811.16
2023-02-24T15:46:54.732Z,98800.56
2023-02-24T15:49:22.569Z,98787.47
2023-02-24T15:51:51.653Z,98791.25
2023-02-24T15:54:21.610Z,98789.72
2023-02-24T15:56:50.788Z,98781.81
2023-02-24T15:59:21.621Z,98780.50
2023-02-24T16:01:51.843Z,98765.09
2023-02-24T16:04:19.834Z,98753.22
2023-02-24T16:06:54.661Z,98760.31
2023-02-24T16:09:31.988Z,98763.03
2023-02-24T16:12:02.422Z,98762.84
2023-02-24T16:14:30.178Z,98755.66
2023-02-24T16:16:57.938Z,98738.22
2023-02-24T16:19:25.735Z,98743.56
2023-02-24T16:21:53.471Z,98743.13
2023-02-24T16:24:21.776Z,98736.91
2023-02-24T16:26:49.974Z,98740.75
2023-02-24T16:29:19.363Z,98731.50
2023-02-24T16:31:47.315Z,98755.38
2023-02-24T16:34:16.817Z,98771.84
2023-02-24T16:36:44.643Z,98770.69
2023-02-24T16:39:14.074Z,98767.63
2023-02-24T16:41:41.866Z,98833.09
2023-02-24T16:44:10.563Z,98802.94
2023-02-24T16:46:45.046Z,98778.81
2023-02-24T16:49:18.869Z,98768.28
2023-02-24T16:51:46.717Z,98754.41
2023-02-24T16:54:14.406Z,98761.41
2023-02-24T16:56:42.107Z,98743.47
2023-02-24T16:59:09.820Z,98742.19
2023-02-24T17:01:38.983Z,98743.38
2023-02-24T17:04:09.876Z,98731.56
2023-02-24T17:06:37.661Z,98730.84
2023-02-24T17:09:05.537Z,98731.84
2023-02-24T17:11:33.958Z,98721.47
2023-02-24T17:14:02.915Z,98712.88
2023-02-24T17:16:30.732Z,98714.59
2023-02-24T17:19:00.041Z,98720.63
2023-02-24T17:21:33.463Z,98721.97
2023-02-24T17:24:01.284Z,98749.25
2023-02-24T17:26:29.054Z,98914.38
2023-02-24T17:28:57.583Z,98849.06
2023-02-24T17:31:28.658Z,98832.81
2023-02-24T17:33:57.081Z,98785.50
2023-02-24T17:36:26.610Z,98723.72
2023-02-24T17:38:56.269Z,98704.50
2023-02-24T17:41:24.817Z,98719.75
2023-02-24T17:43:54.375Z,98736.31
2023-02-24T17:46:22.887Z,98741.69
2023-02-24T17:48:51.097Z,98736.41
2023-02-24T17:51:20.269Z,98749.16
2023-02-24T17:53:49.596Z,98735.91
2023-02-24T17:56:17.329Z,98735.72
2023-02-24T17:58:45.443Z,98748.94
2023-02-24T18:01:13.150Z,98742.56
2023-02-24T18:03:40.949Z,98738.34
2023-02-24T18:06:11.169Z,98742.69
2023-02-24T18:08:39.620Z,98737.72
2023-02-24T18:11:09.881Z,98732.47
2023-02-24T18:13:37.729Z,98739.34
2023-02-24T18:16:10.074Z,98721.22
2023-02-24T18:18:38.039Z,98720.94
2023-02-24T18:21:08.412Z,98715.97
2023-02-24T18:23:38.217Z,98718.78
2023-02-24T18:26:09.004Z,98712.94
2023-02-24T18:28:36.993Z,98706.47
2023-02-24T18:31:11.906Z,98714.63
2023-02-24T18:33:40.087Z,98707.31
2023-02-24T18:36:09.126Z,98703.06
2023-02-24T18:38:37.139Z,98701.59
2023-02-24T18:41:07.291Z,98704.00
2023-02-24T18:43:36.895Z,98692.88
2023-02-24T18:46:06.992Z,98725.19
2023-02-24T18:48:35.950Z,98735.22
2023-02-24T18:51:03.972Z,98730.28
2023-02-24T18:53:34.157Z,98732.00
2023-02-24T18:56:02.640Z,98731.63
2023-02-24T18:58:31.662Z,98728.19
2023-02-24T19:01:00.837Z,98721.47
2023-02-24T19:03:28.543Z,98727.53
2023-02-24T19:05:56.638Z,98721.75
2023-02-24T19:08:24.740Z,98732.75
2023-02-24T19:10:54.660Z,98738.38
2023-02-24T19:13:23.986Z,98735.91
2023-02-24T19:15:52.098Z,98740.50
2023-02-24T19:18:21.374Z,98742.78
2023-02-24T19:20:49.087Z,98735.25
2023-02-24T19:23:16.804Z,98733.84
2023-02-24T19:25:44.799Z,98736.34
2023-02-24T19:28:12.589Z,98738.28
2023-02-24T19:30:41.020Z,98739.19
2023-02-24T19:33:09.637Z,98751.34
2023-02-24T19:35:42.660Z,98734.03
2023-02-24T19:38:14.138Z,98749.34
2023-02-24T19:40:41.969Z,98750.28
2023-02-24T19:43:10.425Z,98756.22
2023-02-24T19:45:41.690Z,98739.59
2023-02-24T19:48:09.666Z,98752.31
2023-02-24T19:50:41.622Z,98758.72
2023-02-24T19:53:09.777Z,98749.63
2023-02-24T19:55:37.657Z,98752.13
2023-02-24T19:58:05.984Z,98746.91
2023-02-24T20:00:33.757Z,98755.56
2023-02-24T20:03:01.464Z,98755.56
2023-02-24T20:05:29.252Z,98746.38
2023-02-24T20:07:59.263Z,98730.47
2023-02-24T20:10:27.013Z,98740.41
2023-02-24T20:12:55.473Z,98750.91
2023-02-24T20:15:23.148Z,98728.44
2023-02-24T20:17:51.213Z,98736.84
2023-02-24T20:20:18.951Z,98734.69
2023-02-24T20:22:46.684Z,98741.94
2023-02-24T20:25:15.776Z,98737.69
2023-02-24T20:27:43.677Z,98735.91
2023-02-24T20:30:12.841Z,98735.31
2023-02-24T20:32:40.821Z,98755.50
2023-02-24T20:35:11.116Z,98748.28
2023-02-24T20:37:38.903Z,98746.06
2023-02-24T20:40:08.893Z,98748.13
2023-02-24T20:42:37.977Z,98742.88
2023-02-24T20:45:07.976Z,98757.34
2023-02-24T20:47:35.713Z,98750.16
2023-02-24T20:50:05.684Z,98747.75
2023-02-24T20:52:34.304Z,98744.75
2023-02-24T20:55:02.459Z,98750.03
2023-02-24T20:57:30.410Z,98748.38
2023-02-24T21:00:04.298Z,98747.56
2023-02-24T21:02:32.053Z,98736.88
2023-02-24T21:04:59.808Z,98741.78
2023-02-24T21:07:27.736Z,98726.97
2023-02-24T21:09:55.492Z,98738.94
2023-02-24T21:12:25.186Z,98726.78
2023-02-24T21:14:52.934Z,98728.00
2023-02-24T21:17:22.158Z,98718.72
2023-02-24T21:19:49.910Z,98721.53
2023-02-24T21:22:17.730Z,98716.38
2023-02-24T21:24:45.572Z,98716.97
2023-02-24T21:27:13.297Z,98713.34
2023-02-24T21:29:41.015Z,98717.63
2023-02-24T21:32:11.634Z,98715.31
2023-02-24T21:34:40.856Z,98714.69
2023-02-24T21:37:08.621Z,98709.72
2023-02-24T21:39:37.875Z,98704.94
2023-02-24T21:42:07.428Z,98684.94
2023-02-24T21:44:35.204Z,98694.56
2023-02-24T21:47:03.032Z,98696.75
2023-02-24T21:49:30.776Z,98690.50
2023-02-24T21:51:59.931Z,98697.06
2023-02-24T21:54:27.777Z,98693.81
2023-02-24T21:56:55.624Z,98693.25
2023-02-24T21:59:23.640Z,98708.16
2023-02-24T22:01:51.498Z,98691.38
2023-02-24T22:04:20.531Z,98691.22
2023-02-24T22:06:48.892Z,98681.69
2023-02-24T22:09:20.152Z,98688.00
2023-02-24T22:11:49.384Z,98694.41
2023-02-24T22:14:17.927Z,98696.44
2023-02-24T22:16:45.933Z,98692.03
2023-02-24T22:19:14.394Z,98683.16
2023-02-24T22:21:43.144Z,98690.69
2023-02-24T22:24:14.014Z,98675.59
2023-02-24T22:26:44.178Z,98696.97
2023-02-24T22:29:12.527Z,98726.47
2023-02-24T22:31:43.411Z,98720.34
2023-02-24T22:34:13.098Z,98732.47
2023-02-24T22:36:41.072Z,98749.75
2023-02-24T22:39:09.364Z,98739.16
2023-02-24T22:41:38.147Z,98753.09
2023-02-24T22:44:07.723Z,98754.41
2023-02-24T22:46:37.149Z,99178.06
2023-02-24T22:49:05.227Z,99108.31
2023-02-24T22:51:33.119Z,99074.56
2023-02-24T22:54:00.877Z,99036.97
2023-02-24T22:56:29.969Z,99032.81
2023-02-24T22:58:58.440Z,99012.81
2023-02-24T23:01:29.548Z,98989.41
2023-02-24T23:04:00.268Z,98996.44
2023-02-24T23:06:28.227Z,99007.47
2023-02-24T23:08:57.542Z,98995.34
2023-02-24T23:11:28.239Z,99022.38
2023-02-24T23:13:58.736Z,99088.63
2023-02-24T23:16:31.571Z,99164.19
2023-02-24T23:19:00.939Z,99141.25
2023-02-24T23:21:34.753Z,99114.56
2023-02-24T23:24:03.343Z,99097.94
2023-02-24T23:26:31.787Z,99059.91
2023-02-24T23:28:59.723Z,99050.59
2023-02-24T23:31:29.390Z,99053.31
2023-02-24T23:33:57.976Z,99021.50
2023-02-24T23:36:26.516Z,98998.34
2023-02-24T23:38:54.324Z,98999.41
2023-02-24T23:41:22.196Z,98984.13
2023-02-24T23:43:49.930Z,98981.09
2023-02-24T23:46:17.757Z,98993.63
2023-02-24T23:48:47.032Z,99007.78
2023-02-24T23:51:17.260Z,99008.69
2023-02-24T23:53:46.630Z,99113.25
2023-02-24T23:56:17.045Z,99166.91
2023-02-24T23:58:45.543Z,99157.19
